Etusivu
METAR-TAF:

METAR-TAF

Lentoasemat :

Bagdadin kansainvälinen lentoasema

Bagdad, Irak

Leveyspiiri: 33-15-45N, Pituuspiiri: 44-14-04E, korkeus merenpinnasta: 35 m

Tämänhetkinen sää

Tämä raportti tehtiin 1 tunti ja 16 minuuttia sitten, kello 04.00 UTC
Tuuli 2 kn lännestä
Lämpötila 14°C
Kosteus 58%
Ilmanpaine 1017 hPa
Näkyvyys: 8000 m
Muutamia pilviä 3000 ft:n korkeudessa
Hajonneita pilviä 10000 ft:n korkeudessa

METAR: ORBI 130400Z 28002KT 8000 FEW030 BKN100 14/06 Q1017

Aika: 08:16 (05:16 UTC)

Sääennuste

Tämä raportti tehtiin 7 tuntia ja 16 minuuttia sitten, kello 22.00 UTC
Ennuste voimassa 13. päivästä klo 00 UTC - 13. päivään klo 24 UTC
Tuuli 3 kn eri suunnista
Näkyvyys: 7000 m
Hajanaisia pilviä 4000 ft:n korkeudessa
Hajanaisia pilviä 7000 ft:n korkeudessa

TAF: ORBI 122200Z 1300/1324 VRB03KT 7000 SCT040 SCT070

Säähavainnot ja -ennusteet yli 4000 lentoasemalta (METAR- ja TAF-raportit).

Käytössä olevat sääasemat on merkitty karttaan keltaisilla ja punaisilla pisteillä.

Aseta hiiri pisteen päälle nähdäksesi sääaseman nimen.

Klikkaa sitten nähdäksesi säähavainnot ja -ennusteet.

Kartan vaihtaminen: klikkaa mustalla rastilla varustettuja vihreitä pisteitä, niin voit zoomata sisään; viivalla varustettua vihreää pistettä, niin voit zoomata ulos tai vihreitä nuolia, niin pääset viereisille kartoille.


METAR-TAF: